New Richmond, Wisconsin
Current Conditions -  °F | °C
As of 5:15 AM on Monday 20 Oct 2014 (Local Time) from KRNH Reporting Station
Clear Clear  
Wind Chill: 40°   Ceiling: Unl
Heat Index: 42°   Visibility: 10mi
Dew Point: 41°   Wind: 5mph
Humidity: 93%   Direction: 280°W
Pressure: 29.91"   Gusts: NA
Location:  45.12°N, 92.54°W
Report Text: KRNH 201015Z AUTO 28004KT 10SM CLR 06/05 A2991 RMK AO2 T00580048
Loading
Personal Weather Stations






























Interactive Weather Map New forecast layout! Learn more

10-Day Weather Forecast

Advertisements
Track Severe Weather on mobile